Terminal Aerodrome Forecast
Issued by NWS

Home | Current Version | Previous Version | Text Only | Print | Product List | Glossary On
Versions: 1 2 3 4 5 6 7 8 9 10 11 12 13 14
000
FTUS43 KEAX 241100
TAFSTJ
TAF
KSTJ 241120Z 2412/2512 15012KT P6SM VCSH OVC030
     FM241300 16014KT 6SM -SHRA VCTS OVC025CB
     FM241500 16010G20KT P6SM BKN025
     FM242300 16012G20KT P6SM VCTS BKN030CB
     FM250000 18012G20KT 5SM -TSRA BKN020CB
     FM250500 19012G20KT 5SM -RA VCTS BKN020CB=

USA.gov is the U.S. government's official web portal to all federal, state and local government web resources and services.